createdAt,value
2023-01-19T00:00:28.930Z,10.80
2023-01-19T00:02:55.508Z,10.47
2023-01-19T00:05:22.083Z,10.80
2023-01-19T00:07:48.622Z,11.30
2023-01-19T00:10:15.849Z,11.10
2023-01-19T00:12:42.326Z,10.80
2023-01-19T00:15:09.950Z,10.53
2023-01-19T00:17:36.457Z,10.93
2023-01-19T00:20:03.305Z,11.27
2023-01-19T00:22:29.849Z,10.37
2023-01-19T00:24:56.305Z,10.13
2023-01-19T00:27:22.771Z,10.20
2023-01-19T00:29:49.239Z,10.27
2023-01-19T00:32:17.133Z,9.40
2023-01-19T00:34:48.628Z,9.63
2023-01-19T00:37:16.516Z,9.60
2023-01-19T00:39:43.129Z,9.07
2023-01-19T00:42:30.726Z,10.00
2023-01-19T00:44:57.307Z,9.63
2023-01-19T00:47:23.865Z,8.83
2023-01-19T00:49:50.335Z,8.13
2023-01-19T00:52:16.814Z,8.30
2023-01-19T00:54:43.289Z,8.63
2023-01-19T00:57:09.757Z,7.80
2023-01-19T00:59:36.243Z,6.97
2023-01-19T01:02:02.993Z,8.47
2023-01-19T01:04:29.642Z,7.17
2023-01-19T01:06:56.122Z,6.90
2023-01-19T01:09:23.836Z,7.73
2023-01-19T01:11:50.299Z,10.23
2023-01-19T01:14:17.472Z,8.63
2023-01-19T01:16:44.212Z,7.97
2023-01-19T01:19:10.829Z,8.57
2023-01-19T01:21:37.321Z,8.83
2023-01-19T01:24:04.470Z,9.37
2023-01-19T01:26:31.029Z,10.40
2023-01-19T01:28:57.537Z,10.50
2023-01-19T01:31:24.035Z,10.17
2023-01-19T01:33:50.498Z,9.43
2023-01-19T01:36:18.260Z,9.63
2023-01-19T01:38:44.998Z,9.40
2023-01-19T01:41:12.408Z,8.20
2023-01-19T01:43:57.494Z,7.47
2023-01-19T01:46:26.589Z,6.83
2023-01-19T01:49:07.203Z,6.63
2023-01-19T01:51:50.234Z,8.10
2023-01-19T01:54:28.658Z,7.40
2023-01-19T01:57:01.491Z,8.73
2023-01-19T01:59:38.242Z,9.13
2023-01-19T02:02:33.909Z,7.57
2023-01-19T02:05:32.794Z,7.70
2023-01-19T02:08:42.670Z,7.40
2023-01-19T02:11:27.716Z,7.03
2023-01-19T02:13:54.173Z,6.37
2023-01-19T02:16:20.835Z,6.37
2023-01-19T02:18:47.424Z,6.13
2023-01-19T02:21:46.059Z,6.43
2023-01-19T02:24:12.833Z,5.90
2023-01-19T02:26:46.741Z,6.87
2023-01-19T02:29:25.870Z,8.17
2023-01-19T02:31:53.220Z,7.57
2023-01-19T02:34:22.077Z,7.50
2023-01-19T02:37:05.833Z,7.20
2023-01-19T02:39:47.690Z,7.50
2023-01-19T02:42:36.966Z,7.07
2023-01-19T02:45:05.953Z,7.97
2023-01-19T02:47:51.000Z,7.47
2023-01-19T02:50:49.128Z,6.83
2023-01-19T02:53:53.522Z,7.63
2023-01-19T02:59:38.399Z,7.80
2023-01-19T03:04:13.801Z,7.83
2023-01-19T03:07:23.883Z,9.23
2023-01-19T03:10:07.152Z,8.33
2023-01-19T03:13:06.800Z,9.47
2023-01-19T03:15:51.866Z,10.00
2023-01-19T03:18:27.361Z,10.03
2023-01-19T03:21:00.691Z,8.97
2023-01-19T03:23:33.983Z,8.33
2023-01-19T03:26:04.438Z,9.07
2023-01-19T03:28:35.563Z,9.37
2023-01-19T03:31:13.489Z,10.10
2023-01-19T03:33:48.617Z,11.00
2023-01-19T03:36:43.888Z,10.80
2023-01-19T03:39:17.230Z,12.23
2023-01-19T03:41:48.696Z,11.57
2023-01-19T03:44:16.504Z,12.10
2023-01-19T03:46:45.437Z,11.70
2023-01-19T03:49:12.311Z,11.43
2023-01-19T03:51:39.527Z,10.90
2023-01-19T03:54:09.028Z,10.33
2023-01-19T03:56:35.521Z,9.70
2023-01-19T03:59:01.977Z,9.27
2023-01-19T04:01:28.532Z,10.10
2023-01-19T04:03:55.071Z,9.57
2023-01-19T04:06:21.558Z,10.40
2023-01-19T04:08:50.520Z,9.90
2023-01-19T04:11:17.358Z,9.70
2023-01-19T04:13:44.116Z,9.60
2023-01-19T04:16:11.891Z,9.87
2023-01-19T04:18:39.696Z,8.90
2023-01-19T04:21:07.364Z,9.80
2023-01-19T04:23:34.554Z,10.07
2023-01-19T04:26:04.959Z,10.20
2023-01-19T04:28:34.023Z,9.50
2023-01-19T04:31:00.993Z,9.17
2023-01-19T04:33:27.979Z,9.87
2023-01-19T04:35:55.345Z,9.93
2023-01-19T04:38:24.271Z,10.30
2023-01-19T04:40:52.037Z,10.00
2023-01-19T04:43:19.961Z,9.53
2023-01-19T04:45:47.447Z,10.13
2023-01-19T04:48:15.037Z,9.70
2023-01-19T04:50:41.664Z,13.77
2023-01-19T04:53:09.160Z,11.57
2023-01-19T04:55:38.044Z,11.30
2023-01-19T04:58:04.597Z,11.07
2023-01-19T05:00:31.710Z,9.37
2023-01-19T05:02:58.365Z,8.83
2023-01-19T05:05:26.535Z,9.47
2023-01-19T05:07:53.996Z,9.17
2023-01-19T05:10:20.536Z,9.53
2023-01-19T05:12:47.027Z,9.27
2023-01-19T05:15:13.488Z,10.30
2023-01-19T05:17:39.978Z,11.87
2023-01-19T05:20:09.835Z,10.57
2023-01-19T05:22:36.291Z,10.80
2023-01-19T05:25:02.776Z,10.63
2023-01-19T05:27:29.312Z,11.00
2023-01-19T05:29:55.794Z,12.13
2023-01-19T05:32:22.354Z,12.30
2023-01-19T05:34:48.827Z,10.63
2023-01-19T05:37:15.283Z,10.23
2023-01-19T05:39:41.758Z,9.00
2023-01-19T05:42:08.242Z,9.43
2023-01-19T05:44:34.736Z,8.57
2023-01-19T05:47:01.261Z,9.40
2023-01-19T05:49:27.768Z,9.03
2023-01-19T05:51:54.217Z,8.50
2023-01-19T05:54:20.788Z,7.70
2023-01-19T05:56:47.261Z,7.43
2023-01-19T05:59:14.544Z,9.10
2023-01-19T06:01:41.087Z,8.47
2023-01-19T06:04:07.608Z,9.30
2023-01-19T06:06:34.088Z,8.77
2023-01-19T06:09:00.676Z,8.63
2023-01-19T06:11:27.641Z,7.43
2023-01-19T06:13:54.111Z,8.83
2023-01-19T06:16:20.590Z,7.10
2023-01-19T06:18:47.088Z,5.67
2023-01-19T06:21:13.533Z,6.03
2023-01-19T06:23:40.612Z,6.10
2023-01-19T06:26:07.144Z,5.93
2023-01-19T06:28:33.790Z,6.03
2023-01-19T06:31:00.593Z,6.83
2023-01-19T06:33:27.280Z,6.87
2023-01-19T06:35:54.015Z,6.30
2023-01-19T06:38:21.250Z,5.90
2023-01-19T06:41:01.822Z,6.10
2023-01-19T06:43:28.751Z,6.10
2023-01-19T06:45:55.801Z,6.80
2023-01-19T06:48:23.076Z,7.00
2023-01-19T06:50:49.619Z,6.07
2023-01-19T06:53:19.079Z,6.03
2023-01-19T06:55:45.713Z,6.07
2023-01-19T06:58:12.905Z,6.30
2023-01-19T07:00:39.500Z,7.27
2023-01-19T07:03:07.757Z,6.83
2023-01-19T07:05:35.672Z,6.77
2023-01-19T07:08:03.129Z,6.50
2023-01-19T07:11:25.674Z,7.10
2023-01-19T07:13:58.705Z,6.10
2023-01-19T07:16:25.253Z,6.20
2023-01-19T07:18:51.771Z,6.03
2023-01-19T07:21:18.389Z,5.13
2023-01-19T07:23:49.369Z,6.13
2023-01-19T07:26:17.842Z,6.20
2023-01-19T07:28:45.459Z,6.17
2023-01-19T07:31:12.371Z,5.73
2023-01-19T07:33:38.896Z,6.03
2023-01-19T07:36:05.868Z,5.83
2023-01-19T07:38:32.383Z,5.33
2023-01-19T07:41:07.668Z,5.70
2023-01-19T07:43:34.461Z,5.73
2023-01-19T07:46:05.548Z,6.10
2023-01-19T07:48:32.119Z,6.20
2023-01-19T07:51:12.875Z,6.20
2023-01-19T07:53:40.994Z,6.10
2023-01-19T07:56:08.036Z,5.27
2023-01-19T07:58:34.566Z,5.43
2023-01-19T08:01:05.700Z,6.13
2023-01-19T08:03:32.755Z,6.17
2023-01-19T08:05:59.364Z,6.20
2023-01-19T08:08:25.855Z,5.70
2023-01-19T08:10:52.562Z,5.63
2023-01-19T08:13:19.064Z,5.73
2023-01-19T08:15:49.233Z,5.43
2023-01-19T08:18:15.855Z,6.97
2023-01-19T08:20:42.352Z,7.70
2023-01-19T08:23:08.829Z,5.20
2023-01-19T08:25:45.810Z,6.57
2023-01-19T08:28:15.247Z,5.60
2023-01-19T08:30:45.569Z,5.70
2023-01-19T08:33:12.996Z,4.30
2023-01-19T08:35:48.235Z,4.50
2023-01-19T08:38:16.342Z,4.70
2023-01-19T08:40:43.356Z,4.80
2023-01-19T08:43:14.046Z,4.80
2023-01-19T08:45:48.379Z,4.57
2023-01-19T08:48:21.962Z,4.63
2023-01-19T08:50:50.426Z,4.57
2023-01-19T08:53:18.427Z,4.90
2023-01-19T08:55:44.919Z,5.23
2023-01-19T08:58:11.421Z,5.07
2023-01-19T09:00:39.464Z,4.07
2023-01-19T09:03:10.563Z,4.70
2023-01-19T09:05:38.277Z,4.87
2023-01-19T09:08:12.269Z,4.57
2023-01-19T09:10:48.408Z,4.30
2023-01-19T09:13:17.841Z,4.60
2023-01-19T09:15:45.281Z,4.70
2023-01-19T09:18:18.363Z,4.63
2023-01-19T09:20:48.461Z,4.83
2023-01-19T09:23:18.720Z,5.10
2023-01-19T09:25:47.362Z,4.87
2023-01-19T09:28:16.848Z,4.83
2023-01-19T09:30:44.403Z,4.93
2023-01-19T09:33:15.104Z,4.97
2023-01-19T09:35:44.357Z,5.50
2023-01-19T09:38:12.298Z,5.20
2023-01-19T09:40:55.931Z,4.93
2023-01-19T09:45:00.703Z,5.00
2023-01-19T09:47:31.127Z,5.30
2023-01-19T09:50:47.631Z,5.20
2023-01-19T09:53:27.408Z,4.90
2023-01-19T09:55:53.888Z,5.33
2023-01-19T09:58:21.201Z,4.57
2023-01-19T10:01:03.411Z,5.63
2023-01-19T10:03:32.002Z,5.33
2023-01-19T10:06:05.114Z,5.47
2023-01-19T10:11:38.111Z,5.60
2023-01-19T10:15:34.510Z,6.67
2023-01-19T10:18:32.418Z,10.50
2023-01-19T10:21:27.371Z,9.37
2023-01-19T10:25:46.325Z,6.20
2023-01-19T10:28:16.449Z,5.40
2023-01-19T10:30:47.298Z,5.60
2023-01-19T10:33:14.680Z,5.10
2023-01-19T10:35:42.094Z,4.63
2023-01-19T10:38:14.332Z,5.33
2023-01-19T10:41:04.465Z,5.43
2023-01-19T10:43:47.992Z,5.70
2023-01-19T10:47:04.482Z,5.50
2023-01-19T10:49:39.080Z,4.97
2023-01-19T10:52:21.043Z,5.17
2023-01-19T10:54:50.013Z,4.23
2023-01-19T11:00:44.674Z,4.10
2023-01-19T11:03:31.855Z,4.70
2023-01-19T11:06:25.954Z,3.53
2023-01-19T11:09:08.096Z,4.03
2023-01-19T11:11:47.509Z,4.17
2023-01-19T11:14:30.257Z,3.87
2023-01-19T11:16:57.985Z,4.00
2023-01-19T11:19:32.422Z,4.80
2023-01-19T11:22:31.741Z,3.43
2023-01-19T11:25:04.568Z,4.30
2023-01-19T11:27:35.650Z,4.13
2023-01-19T11:30:21.404Z,5.50
2023-01-19T11:32:48.621Z,5.50
2023-01-19T11:35:40.509Z,4.90
2023-01-19T11:38:21.886Z,3.80
2023-01-19T11:40:58.967Z,3.33
2023-01-19T11:43:43.379Z,3.37
2023-01-19T11:46:16.887Z,3.20
2023-01-19T11:49:01.440Z,3.70
2023-01-19T11:51:49.369Z,3.80
2023-01-19T11:54:31.170Z,3.30
2023-01-19T11:57:00.505Z,3.50
2023-01-19T11:59:28.423Z,3.00
2023-01-19T12:02:01.898Z,1.83
2023-01-19T12:04:39.575Z,1.50
2023-01-19T12:07:12.126Z,2.00
2023-01-19T12:09:48.260Z,1.90
2023-01-19T12:12:30.449Z,1.73
2023-01-19T12:16:26.290Z,1.77
2023-01-19T12:19:17.989Z,2.07
2023-01-19T12:21:48.659Z,1.40
2023-01-19T12:24:30.196Z,1.27
2023-01-19T12:27:08.841Z,1.93
2023-01-19T12:29:36.384Z,1.53
2023-01-19T12:32:31.985Z,1.73
2023-01-19T12:34:58.474Z,1.00
2023-01-19T12:37:41.276Z,1.17
2023-01-19T12:40:40.841Z,1.50
2023-01-19T12:43:16.279Z,1.40
2023-01-19T12:45:45.078Z,1.50
2023-01-19T12:48:25.694Z,1.00
2023-01-19T12:50:52.345Z,1.20
2023-01-19T12:53:21.734Z,1.30
2023-01-19T12:56:07.924Z,1.40
2023-01-19T12:58:34.791Z,1.47
2023-01-19T13:01:20.738Z,1.50
2023-01-19T13:04:30.702Z,1.73
2023-01-19T13:07:09.980Z,2.10
2023-01-19T13:09:42.148Z,2.00
2023-01-19T13:12:29.975Z,1.70
2023-01-19T13:15:33.183Z,1.60
2023-01-19T13:18:01.299Z,1.53
2023-01-19T13:20:45.876Z,1.40
2023-01-19T13:23:50.105Z,1.50
2023-01-19T13:26:22.643Z,1.27
2023-01-19T13:29:25.528Z,1.20
2023-01-19T13:31:54.083Z,1.43
2023-01-19T13:34:24.946Z,2.07
2023-01-19T13:36:55.758Z,2.00
2023-01-19T13:39:48.149Z,2.10
2023-01-19T13:42:30.030Z,2.53
2023-01-19T13:45:03.526Z,3.03
2023-01-19T13:47:50.768Z,2.60
2023-01-19T13:50:28.112Z,2.87
2023-01-19T13:52:55.968Z,2.90
2023-01-19T13:55:25.647Z,2.90
2023-01-19T13:57:52.851Z,2.60
2023-01-19T14:00:26.265Z,2.80
2023-01-19T14:03:35.992Z,2.60
2023-01-19T14:06:02.656Z,2.90
2023-01-19T14:08:30.458Z,2.70
2023-01-19T14:11:01.794Z,2.80
2023-01-19T14:13:39.356Z,2.40
2023-01-19T14:16:15.435Z,2.40
2023-01-19T14:18:42.887Z,2.00
2023-01-19T14:21:13.727Z,2.13
2023-01-19T14:23:54.626Z,2.07
2023-01-19T14:26:50.500Z,2.20
2023-01-19T14:29:35.475Z,2.33
2023-01-19T14:32:26.878Z,2.33
2023-01-19T14:35:24.412Z,2.17
2023-01-19T14:37:51.630Z,2.40
2023-01-19T14:40:23.728Z,2.37
2023-01-19T14:42:54.878Z,3.53
2023-01-19T14:45:47.044Z,4.23
2023-01-19T14:48:21.398Z,3.00
2023-01-19T14:51:02.329Z,2.70
2023-01-19T14:53:37.538Z,2.10
2023-01-19T14:56:06.457Z,2.70
2023-01-19T14:58:35.012Z,2.80
2023-01-19T15:01:03.229Z,2.80
2023-01-19T15:03:48.235Z,2.77
2023-01-19T15:06:20.502Z,2.90
2023-01-19T15:08:49.223Z,3.27
2023-01-19T15:11:31.990Z,4.13
2023-01-19T15:13:59.860Z,2.50
2023-01-19T15:16:29.263Z,2.50
2023-01-19T15:18:55.825Z,2.90
2023-01-19T15:21:22.910Z,2.67
2023-01-19T15:23:49.895Z,2.67
2023-01-19T15:26:20.153Z,3.17
2023-01-19T15:28:50.343Z,3.27
2023-01-19T15:31:20.498Z,2.97
2023-01-19T15:33:47.122Z,3.20
2023-01-19T15:36:18.504Z,3.37
2023-01-19T15:38:46.006Z,3.00
2023-01-19T15:41:29.076Z,5.40
2023-01-19T15:43:56.135Z,4.20
2023-01-19T15:46:25.020Z,5.83
2023-01-19T15:48:52.631Z,7.20
2023-01-19T15:51:22.547Z,6.43
2023-01-19T15:53:49.805Z,6.17
2023-01-19T15:56:23.768Z,4.70
2023-01-19T15:58:51.121Z,4.47
2023-01-19T16:01:21.780Z,5.17
2023-01-19T16:03:49.869Z,4.47
2023-01-19T16:06:17.210Z,4.77
2023-01-19T16:08:44.251Z,4.23
2023-01-19T16:11:14.846Z,4.87
2023-01-19T16:13:45.714Z,4.13
2023-01-19T16:16:22.059Z,3.97
2023-01-19T16:18:48.929Z,3.93
2023-01-19T16:21:15.566Z,4.37
2023-01-19T16:23:42.140Z,4.50
2023-01-19T16:26:27.040Z,4.30
2023-01-19T16:29:01.280Z,4.37
2023-01-19T16:31:28.990Z,3.83
2023-01-19T16:33:55.493Z,4.80
2023-01-19T16:36:33.758Z,3.70
2023-01-19T16:39:07.557Z,4.10
2023-01-19T16:41:34.989Z,3.70
2023-01-19T16:44:02.108Z,3.70
2023-01-19T16:46:34.399Z,3.83
2023-01-19T16:49:16.301Z,3.87
2023-01-19T16:51:43.236Z,4.07
2023-01-19T16:54:16.482Z,4.03
2023-01-19T16:56:43.105Z,3.93
2023-01-19T16:59:13.066Z,3.53
2023-01-19T17:01:40.331Z,3.87
2023-01-19T17:04:07.125Z,3.93
2023-01-19T17:06:33.615Z,11.20
2023-01-19T17:09:00.104Z,15.50
2023-01-19T17:11:30.409Z,16.27
2023-01-19T17:14:23.159Z,13.83
2023-01-19T17:16:49.725Z,14.07
2023-01-19T17:19:21.187Z,13.73
2023-01-19T17:21:49.037Z,15.87
2023-01-19T17:24:16.708Z,15.03
2023-01-19T17:26:45.142Z,14.87
2023-01-19T17:29:11.802Z,14.83
2023-01-19T17:31:38.277Z,15.67
2023-01-19T17:34:05.546Z,14.20
2023-01-19T17:36:33.191Z,15.30
2023-01-19T17:39:05.278Z,15.33
2023-01-19T17:41:34.582Z,16.33
2023-01-19T17:44:03.396Z,15.90
2023-01-19T17:46:30.430Z,16.53
2023-01-19T17:49:00.980Z,15.73
2023-01-19T17:51:28.792Z,16.13
2023-01-19T17:53:56.031Z,19.17
2023-01-19T17:56:28.643Z,21.77
2023-01-19T17:58:57.116Z,21.40
2023-01-19T18:01:27.183Z,16.60
2023-01-19T18:03:54.058Z,13.40
2023-01-19T18:06:21.455Z,13.60
2023-01-19T18:08:49.343Z,11.27
2023-01-19T18:11:19.032Z,10.73
2023-01-19T18:13:47.867Z,10.50
2023-01-19T18:16:22.859Z,13.13
2023-01-19T18:18:52.720Z,13.33
2023-01-19T18:21:21.239Z,10.87
2023-01-19T18:23:49.440Z,11.20
2023-01-19T18:26:20.645Z,10.73
2023-01-19T18:28:48.228Z,10.00
2023-01-19T18:31:18.180Z,10.17
2023-01-19T18:33:47.077Z,9.53
2023-01-19T18:36:14.264Z,10.83
2023-01-19T18:38:40.875Z,12.37
2023-01-19T18:41:14.602Z,12.47
2023-01-19T18:43:41.994Z,12.63
2023-01-19T18:46:09.163Z,11.27
2023-01-19T18:48:37.579Z,17.50
2023-01-19T18:51:10.991Z,12.60
2023-01-19T18:53:38.242Z,12.17
2023-01-19T18:56:06.403Z,12.53
2023-01-19T18:58:36.171Z,13.73
2023-01-19T19:01:02.724Z,14.90
2023-01-19T19:03:29.570Z,15.47
2023-01-19T19:05:56.532Z,12.33
2023-01-19T19:08:23.113Z,10.53
2023-01-19T19:10:49.568Z,10.73
2023-01-19T19:13:16.951Z,9.93
2023-01-19T19:15:46.052Z,10.03
2023-01-19T19:18:12.952Z,10.43
2023-01-19T19:20:41.283Z,20.53
2023-01-19T19:23:07.759Z,19.70
2023-01-19T19:25:34.239Z,20.40
2023-01-19T19:28:00.703Z,13.33
2023-01-19T19:30:27.541Z,14.50
2023-01-19T19:32:55.674Z,16.37
2023-01-19T19:35:25.532Z,17.03
2023-01-19T19:37:56.512Z,17.80
2023-01-19T19:40:25.375Z,17.93
2023-01-19T19:42:52.381Z,17.07
2023-01-19T19:45:18.958Z,19.00
2023-01-19T19:47:45.560Z,15.97
2023-01-19T19:50:12.529Z,13.07
2023-01-19T19:52:41.166Z,12.10
2023-01-19T19:55:09.897Z,11.10
2023-01-19T19:57:36.397Z,10.37
2023-01-19T20:00:04.432Z,10.83
2023-01-19T20:02:31.321Z,12.60
2023-01-19T20:04:57.923Z,11.17
2023-01-19T20:07:24.427Z,12.57
2023-01-19T20:09:52.715Z,14.00
2023-01-19T20:12:19.246Z,12.83
2023-01-19T20:14:45.741Z,12.37
2023-01-19T20:17:12.186Z,12.47
2023-01-19T20:19:38.665Z,12.70
2023-01-19T20:22:05.117Z,12.57
2023-01-19T20:24:31.605Z,11.83
2023-01-19T20:26:58.098Z,10.83
2023-01-19T20:29:24.569Z,12.37
2023-01-19T20:31:54.764Z,12.37
2023-01-19T20:34:28.064Z,11.97
2023-01-19T20:36:54.800Z,12.93
2023-01-19T20:39:23.282Z,14.10
2023-01-19T20:41:51.711Z,15.07
2023-01-19T20:44:22.117Z,14.00
2023-01-19T20:46:49.359Z,14.37
2023-01-19T20:49:16.116Z,11.13
2023-01-19T20:51:44.263Z,10.57
2023-01-19T20:54:14.038Z,11.27
2023-01-19T20:56:40.855Z,10.93
2023-01-19T20:59:08.967Z,10.57
2023-01-19T21:01:35.745Z,10.60
2023-01-19T21:04:02.684Z,10.97
2023-01-19T21:06:29.162Z,12.83
2023-01-19T21:08:56.726Z,12.43
2023-01-19T21:11:23.598Z,10.60
2023-01-19T21:13:54.678Z,11.63
2023-01-19T21:16:30.915Z,10.97
2023-01-19T21:18:57.701Z,10.63
2023-01-19T21:21:30.677Z,12.13
2023-01-19T21:24:01.944Z,10.93
2023-01-19T21:26:32.581Z,11.73
2023-01-19T21:29:01.239Z,11.63
2023-01-19T21:31:28.775Z,10.90
2023-01-19T21:33:56.866Z,11.93
2023-01-19T21:36:24.083Z,10.33
2023-01-19T21:38:51.600Z,11.77
2023-01-19T21:41:18.608Z,8.80
2023-01-19T21:43:45.359Z,8.37
2023-01-19T21:46:17.889Z,7.73
2023-01-19T21:48:45.215Z,7.17
2023-01-19T21:51:13.014Z,6.57
2023-01-19T21:53:40.499Z,6.43
2023-01-19T21:56:09.542Z,7.50
2023-01-19T21:58:36.215Z,8.03
2023-01-19T22:01:10.029Z,11.40
2023-01-19T22:03:36.600Z,11.60
2023-01-19T22:06:08.380Z,9.17
2023-01-19T22:08:34.948Z,8.67
2023-01-19T22:11:12.986Z,8.03
2023-01-19T22:13:40.149Z,8.67
2023-01-19T22:16:11.870Z,9.10
2023-01-19T22:18:41.600Z,9.30
2023-01-19T22:21:18.996Z,8.80
2023-01-19T22:23:58.296Z,7.70
2023-01-19T22:26:26.591Z,6.93
2023-01-19T22:28:59.137Z,7.20
2023-01-19T22:31:27.849Z,7.73
2023-01-19T22:33:55.272Z,8.20
2023-01-19T22:36:28.679Z,7.80
2023-01-19T22:38:58.532Z,8.63
2023-01-19T22:41:44.154Z,8.57
2023-01-19T22:44:20.271Z,7.70
2023-01-19T22:46:48.364Z,7.83
2023-01-19T22:49:17.371Z,8.67
2023-01-19T22:51:43.993Z,9.43
2023-01-19T22:54:11.361Z,9.67
2023-01-19T22:56:39.044Z,8.87
2023-01-19T22:59:05.995Z,8.77
2023-01-19T23:01:36.288Z,10.83
2023-01-19T23:04:05.028Z,10.27
2023-01-19T23:06:34.865Z,10.43
2023-01-19T23:09:10.680Z,10.50
2023-01-19T23:11:41.427Z,10.90
2023-01-19T23:14:13.523Z,10.60
2023-01-19T23:16:40.700Z,11.60
2023-01-19T23:19:07.268Z,11.33
2023-01-19T23:21:33.956Z,11.33
2023-01-19T23:24:03.291Z,10.87
2023-01-19T23:26:37.069Z,11.70
2023-01-19T23:29:14.704Z,10.57
2023-01-19T23:31:47.809Z,12.07
2023-01-19T23:34:14.932Z,11.37
2023-01-19T23:36:42.566Z,10.47
2023-01-19T23:39:16.492Z,10.00
2023-01-19T23:41:43.384Z,10.57
2023-01-19T23:44:09.971Z,9.87
2023-01-19T23:46:36.879Z,11.97
2023-01-19T23:49:03.618Z,10.43
2023-01-19T23:51:31.912Z,8.23
2023-01-19T23:53:59.808Z,7.53
2023-01-19T23:56:33.009Z,7.10
2023-01-19T23:59:10.103Z,7.13
